sensor_id;sensor_type;location;lat;lon;timestamp;temperature;humidity
3356;DHT22;1691;52.486;13.374;2023-04-15T00:00:56;9.10;98.70
3356;DHT22;1691;52.486;13.374;2023-04-15T00:03:25;9.10;98.70
3356;DHT22;1691;52.486;13.374;2023-04-15T00:05:52;9.20;98.70
3356;DHT22;1691;52.486;13.374;2023-04-15T00:08:19;9.20;98.70
3356;DHT22;1691;52.486;13.374;2023-04-15T00:10:46;9.20;98.70
3356;DHT22;1691;52.486;13.374;2023-04-15T00:13:13;9.20;98.70
3356;DHT22;1691;52.486;13.374;2023-04-15T00:18:11;9.10;98.70
3356;DHT22;1691;52.486;13.374;2023-04-15T00:20:38;9.10;98.70
3356;DHT22;1691;52.486;13.374;2023-04-15T00:23:05;9.10;98.70
3356;DHT22;1691;52.486;13.374;2023-04-15T00:25:32;9.10;98.70
3356;DHT22;1691;52.486;13.374;2023-04-15T00:27:59;9.10;98.70
3356;DHT22;1691;52.486;13.374;2023-04-15T00:30:26;9.10;98.70
3356;DHT22;1691;52.486;13.374;2023-04-15T00:32:53;9.10;98.70
3356;DHT22;1691;52.486;13.374;2023-04-15T00:35:21;9.10;98.70
3356;DHT22;1691;52.486;13.374;2023-04-15T00:37:48;9.10;98.70
3356;DHT22;1691;52.486;13.374;2023-04-15T00:40:17;9.10;98.70
3356;DHT22;1691;52.486;13.374;2023-04-15T00:42:45;9.10;98.70
3356;DHT22;1691;52.486;13.374;2023-04-15T00:45:12;9.10;98.70
3356;DHT22;1691;52.486;13.374;2023-04-15T00:47:40;9.10;98.70
3356;DHT22;1691;52.486;13.374;2023-04-15T00:50:09;9.10;98.70
3356;DHT22;1691;52.486;13.374;2023-04-15T00:52:37;9.10;98.70
3356;DHT22;1691;52.486;13.374;2023-04-15T00:55:06;9.10;98.70
3356;DHT22;1691;52.486;13.374;2023-04-15T00:57:34;9.10;98.70
3356;DHT22;1691;52.486;13.374;2023-04-15T01:00:02;9.20;98.70
3356;DHT22;1691;52.486;13.374;2023-04-15T01:02:31;9.10;98.70
3356;DHT22;1691;52.486;13.374;2023-04-15T01:04:59;9.20;98.70
3356;DHT22;1691;52.486;13.374;2023-04-15T01:07:26;9.20;98.70
3356;DHT22;1691;52.486;13.374;2023-04-15T01:09:53;9.20;98.70
3356;DHT22;1691;52.486;13.374;2023-04-15T01:12:21;9.10;98.70
3356;DHT22;1691;52.486;13.374;2023-04-15T01:14:48;9.20;98.70
3356;DHT22;1691;52.486;13.374;2023-04-15T01:17:16;9.20;98.70
3356;DHT22;1691;52.486;13.374;2023-04-15T01:19:43;9.10;98.70
3356;DHT22;1691;52.486;13.374;2023-04-15T01:22:10;9.10;98.70
3356;DHT22;1691;52.486;13.374;2023-04-15T01:24:37;9.10;98.70
3356;DHT22;1691;52.486;13.374;2023-04-15T01:27:05;9.10;98.70
3356;DHT22;1691;52.486;13.374;2023-04-15T01:29:36;9.10;98.70
3356;DHT22;1691;52.486;13.374;2023-04-15T01:32:04;9.10;98.70
3356;DHT22;1691;52.486;13.374;2023-04-15T01:34:31;9.10;98.70
3356;DHT22;1691;52.486;13.374;2023-04-15T01:37:01;9.10;98.70
3356;DHT22;1691;52.486;13.374;2023-04-15T01:39:28;9.10;98.70
3356;DHT22;1691;52.486;13.374;2023-04-15T01:41:55;9.10;98.70
3356;DHT22;1691;52.486;13.374;2023-04-15T01:44:22;9.10;98.70
3356;DHT22;1691;52.486;13.374;2023-04-15T01:46:49;9.10;98.70
3356;DHT22;1691;52.486;13.374;2023-04-15T01:49:16;9.10;98.70
3356;DHT22;1691;52.486;13.374;2023-04-15T01:51:44;9.10;98.70
3356;DHT22;1691;52.486;13.374;2023-04-15T01:54:11;9.10;98.70
3356;DHT22;1691;52.486;13.374;2023-04-15T01:56:38;9.10;98.70
3356;DHT22;1691;52.486;13.374;2023-04-15T01:59:05;9.10;98.70
3356;DHT22;1691;52.486;13.374;2023-04-15T02:01:32;9.10;98.70
3356;DHT22;1691;52.486;13.374;2023-04-15T02:03:59;9.10;98.70
3356;DHT22;1691;52.486;13.374;2023-04-15T02:06:27;9.10;98.70
3356;DHT22;1691;52.486;13.374;2023-04-15T02:08:53;9.10;98.70
3356;DHT22;1691;52.486;13.374;2023-04-15T02:11:20;9.00;98.70
3356;DHT22;1691;52.486;13.374;2023-04-15T02:13:48;9.00;98.70
3356;DHT22;1691;52.486;13.374;2023-04-15T02:16:19;9.00;98.70
3356;DHT22;1691;52.486;13.374;2023-04-15T02:18:46;9.00;98.70
3356;DHT22;1691;52.486;13.374;2023-04-15T02:21:13;9.00;98.70
3356;DHT22;1691;52.486;13.374;2023-04-15T02:23:40;9.00;98.70
3356;DHT22;1691;52.486;13.374;2023-04-15T02:26:07;9.00;98.70
3356;DHT22;1691;52.486;13.374;2023-04-15T02:28:34;9.00;98.70
3356;DHT22;1691;52.486;13.374;2023-04-15T02:31:06;9.10;98.70
3356;DHT22;1691;52.486;13.374;2023-04-15T02:33:33;9.10;98.70
3356;DHT22;1691;52.486;13.374;2023-04-15T02:36:01;9.10;98.70
3356;DHT22;1691;52.486;13.374;2023-04-15T02:38:28;9.10;98.70
3356;DHT22;1691;52.486;13.374;2023-04-15T02:40:55;9.10;98.70
3356;DHT22;1691;52.486;13.374;2023-04-15T02:43:22;9.10;98.70
3356;DHT22;1691;52.486;13.374;2023-04-15T02:45:49;9.10;98.70
3356;DHT22;1691;52.486;13.374;2023-04-15T02:48:17;9.10;98.70
3356;DHT22;1691;52.486;13.374;2023-04-15T02:50:45;9.10;98.70
3356;DHT22;1691;52.486;13.374;2023-04-15T02:53:13;9.10;98.70
3356;DHT22;1691;52.486;13.374;2023-04-15T02:55:41;9.20;98.70
3356;DHT22;1691;52.486;13.374;2023-04-15T02:58:10;9.20;98.70
3356;DHT22;1691;52.486;13.374;2023-04-15T03:00:37;9.20;98.70
3356;DHT22;1691;52.486;13.374;2023-04-15T03:03:05;9.20;98.70
3356;DHT22;1691;52.486;13.374;2023-04-15T03:05:32;9.20;98.70
3356;DHT22;1691;52.486;13.374;2023-04-15T03:07:59;9.20;98.70
3356;DHT22;1691;52.486;13.374;2023-04-15T03:10:27;9.10;98.70
3356;DHT22;1691;52.486;13.374;2023-04-15T03:12:54;9.10;98.70
3356;DHT22;1691;52.486;13.374;2023-04-15T03:15:21;9.20;98.70
3356;DHT22;1691;52.486;13.374;2023-04-15T03:17:48;9.10;98.70
3356;DHT22;1691;52.486;13.374;2023-04-15T03:20:15;9.20;98.70
3356;DHT22;1691;52.486;13.374;2023-04-15T03:22:42;9.20;98.70
3356;DHT22;1691;52.486;13.374;2023-04-15T03:25:09;9.20;98.70
3356;DHT22;1691;52.486;13.374;2023-04-15T03:27:37;9.20;98.70
3356;DHT22;1691;52.486;13.374;2023-04-15T03:30:05;9.20;98.70
3356;DHT22;1691;52.486;13.374;2023-04-15T03:32:33;9.30;98.70
3356;DHT22;1691;52.486;13.374;2023-04-15T03:35:00;9.30;98.70
3356;DHT22;1691;52.486;13.374;2023-04-15T03:37:27;9.30;98.70
3356;DHT22;1691;52.486;13.374;2023-04-15T03:39:54;9.30;98.70
3356;DHT22;1691;52.486;13.374;2023-04-15T03:42:21;9.30;98.70
3356;DHT22;1691;52.486;13.374;2023-04-15T03:44:48;9.30;98.70
3356;DHT22;1691;52.486;13.374;2023-04-15T03:47:15;9.30;98.70
3356;DHT22;1691;52.486;13.374;2023-04-15T03:49:42;9.30;98.70
3356;DHT22;1691;52.486;13.374;2023-04-15T03:52:09;9.40;98.70
3356;DHT22;1691;52.486;13.374;2023-04-15T03:54:36;9.40;98.70
3356;DHT22;1691;52.486;13.374;2023-04-15T03:57:03;9.40;98.70
3356;DHT22;1691;52.486;13.374;2023-04-15T03:59:30;9.40;98.70
3356;DHT22;1691;52.486;13.374;2023-04-15T04:01:57;9.40;98.70
3356;DHT22;1691;52.486;13.374;2023-04-15T04:04:24;9.40;98.70
3356;DHT22;1691;52.486;13.374;2023-04-15T04:06:51;9.40;98.70
3356;DHT22;1691;52.486;13.374;2023-04-15T04:09:18;9.50;98.70
3356;DHT22;1691;52.486;13.374;2023-04-15T04:11:45;9.50;98.70
3356;DHT22;1691;52.486;13.374;2023-04-15T04:14:12;9.50;98.70
3356;DHT22;1691;52.486;13.374;2023-04-15T04:16:39;9.50;98.70
3356;DHT22;1691;52.486;13.374;2023-04-15T04:19:06;9.50;98.70
3356;DHT22;1691;52.486;13.374;2023-04-15T04:21:34;9.50;98.70
3356;DHT22;1691;52.486;13.374;2023-04-15T04:24:02;9.50;98.70
3356;DHT22;1691;52.486;13.374;2023-04-15T04:26:29;9.50;98.70
3356;DHT22;1691;52.486;13.374;2023-04-15T04:28:56;9.60;98.70
3356;DHT22;1691;52.486;13.374;2023-04-15T04:31:23;9.60;98.70
3356;DHT22;1691;52.486;13.374;2023-04-15T04:33:50;9.60;98.70
3356;DHT22;1691;52.486;13.374;2023-04-15T04:36:17;9.60;98.70
3356;DHT22;1691;52.486;13.374;2023-04-15T04:38:44;9.60;98.70
3356;DHT22;1691;52.486;13.374;2023-04-15T04:41:11;9.60;98.70
3356;DHT22;1691;52.486;13.374;2023-04-15T04:43:38;9.60;98.70
3356;DHT22;1691;52.486;13.374;2023-04-15T04:46:04;9.60;98.70
3356;DHT22;1691;52.486;13.374;2023-04-15T04:48:32;9.60;98.70
3356;DHT22;1691;52.486;13.374;2023-04-15T04:50:58;9.60;98.70
3356;DHT22;1691;52.486;13.374;2023-04-15T04:53:26;9.60;98.70
3356;DHT22;1691;52.486;13.374;2023-04-15T04:55:53;9.70;98.70
3356;DHT22;1691;52.486;13.374;2023-04-15T04:58:20;9.70;98.70
3356;DHT22;1691;52.486;13.374;2023-04-15T05:00:47;9.70;98.70
3356;DHT22;1691;52.486;13.374;2023-04-15T05:03:14;9.70;98.70
3356;DHT22;1691;52.486;13.374;2023-04-15T05:05:41;9.80;98.70
3356;DHT22;1691;52.486;13.374;2023-04-15T05:08:08;9.80;98.70
3356;DHT22;1691;52.486;13.374;2023-04-15T05:10:35;9.80;98.70
3356;DHT22;1691;52.486;13.374;2023-04-15T05:13:02;9.80;98.70
3356;DHT22;1691;52.486;13.374;2023-04-15T05:15:29;9.80;98.70
3356;DHT22;1691;52.486;13.374;2023-04-15T05:17:57;9.80;98.70
3356;DHT22;1691;52.486;13.374;2023-04-15T05:20:24;9.90;98.70
3356;DHT22;1691;52.486;13.374;2023-04-15T05:22:51;9.90;98.70
3356;DHT22;1691;52.486;13.374;2023-04-15T05:25:18;9.90;98.70
3356;DHT22;1691;52.486;13.374;2023-04-15T05:27:45;9.90;98.70
3356;DHT22;1691;52.486;13.374;2023-04-15T05:30:12;9.90;98.70
3356;DHT22;1691;52.486;13.374;2023-04-15T05:32:39;9.90;98.70
3356;DHT22;1691;52.486;13.374;2023-04-15T05:35:06;9.90;98.70
3356;DHT22;1691;52.486;13.374;2023-04-15T05:37:34;10.00;98.70
3356;DHT22;1691;52.486;13.374;2023-04-15T05:40:01;10.00;98.70
3356;DHT22;1691;52.486;13.374;2023-04-15T05:42:29;10.00;98.70
3356;DHT22;1691;52.486;13.374;2023-04-15T05:44:56;10.10;98.70
3356;DHT22;1691;52.486;13.374;2023-04-15T05:47:23;10.10;98.70
3356;DHT22;1691;52.486;13.374;2023-04-15T05:49:50;10.10;98.70
3356;DHT22;1691;52.486;13.374;2023-04-15T05:52:17;10.20;98.70
3356;DHT22;1691;52.486;13.374;2023-04-15T05:54:44;10.20;98.70
3356;DHT22;1691;52.486;13.374;2023-04-15T05:57:12;10.20;98.70
3356;DHT22;1691;52.486;13.374;2023-04-15T05:59:39;10.20;98.70
3356;DHT22;1691;52.486;13.374;2023-04-15T06:02:09;10.30;98.70
3356;DHT22;1691;52.486;13.374;2023-04-15T06:04:36;10.30;98.70
3356;DHT22;1691;52.486;13.374;2023-04-15T06:07:03;10.40;98.70
3356;DHT22;1691;52.486;13.374;2023-04-15T06:09:30;10.50;98.70
3356;DHT22;1691;52.486;13.374;2023-04-15T06:11:58;10.50;98.70
3356;DHT22;1691;52.486;13.374;2023-04-15T06:14:24;10.50;98.70
3356;DHT22;1691;52.486;13.374;2023-04-15T06:16:51;10.50;98.70
3356;DHT22;1691;52.486;13.374;2023-04-15T06:19:18;10.50;98.70
3356;DHT22;1691;52.486;13.374;2023-04-15T06:21:46;10.50;98.70
3356;DHT22;1691;52.486;13.374;2023-04-15T06:24:13;10.60;98.70
3356;DHT22;1691;52.486;13.374;2023-04-15T06:26:40;10.60;98.70
3356;DHT22;1691;52.486;13.374;2023-04-15T06:29:07;10.60;98.70
3356;DHT22;1691;52.486;13.374;2023-04-15T06:31:34;10.70;98.70
3356;DHT22;1691;52.486;13.374;2023-04-15T06:34:01;10.70;98.70
3356;DHT22;1691;52.486;13.374;2023-04-15T06:36:28;10.80;98.70
3356;DHT22;1691;52.486;13.374;2023-04-15T06:38:55;10.90;98.70
3356;DHT22;1691;52.486;13.374;2023-04-15T06:41:22;10.90;98.70
3356;DHT22;1691;52.486;13.374;2023-04-15T06:43:49;11.00;98.70
3356;DHT22;1691;52.486;13.374;2023-04-15T06:46:16;11.00;98.70
3356;DHT22;1691;52.486;13.374;2023-04-15T06:48:44;11.10;98.70
3356;DHT22;1691;52.486;13.374;2023-04-15T06:51:11;11.10;98.70
3356;DHT22;1691;52.486;13.374;2023-04-15T06:53:38;11.20;98.70
3356;DHT22;1691;52.486;13.374;2023-04-15T06:56:08;11.30;98.70
3356;DHT22;1691;52.486;13.374;2023-04-15T06:58:35;11.40;98.70
3356;DHT22;1691;52.486;13.374;2023-04-15T07:01:02;11.50;98.70
3356;DHT22;1691;52.486;13.374;2023-04-15T07:03:30;11.70;98.70
3356;DHT22;1691;52.486;13.374;2023-04-15T07:05:58;12.00;98.70
3356;DHT22;1691;52.486;13.374;2023-04-15T07:08:26;12.20;98.70
3356;DHT22;1691;52.486;13.374;2023-04-15T07:10:53;12.50;98.70
3356;DHT22;1691;52.486;13.374;2023-04-15T07:13:20;12.60;98.70
3356;DHT22;1691;52.486;13.374;2023-04-15T07:15:47;12.70;98.70
3356;DHT22;1691;52.486;13.374;2023-04-15T07:18:14;12.80;98.70
3356;DHT22;1691;52.486;13.374;2023-04-15T07:20:42;12.90;98.70
3356;DHT22;1691;52.486;13.374;2023-04-15T07:23:09;12.80;98.70
3356;DHT22;1691;52.486;13.374;2023-04-15T07:25:36;12.70;98.70
3356;DHT22;1691;52.486;13.374;2023-04-15T07:28:03;12.60;98.70
3356;DHT22;1691;52.486;13.374;2023-04-15T07:30:30;12.50;98.70
3356;DHT22;1691;52.486;13.374;2023-04-15T07:32:57;12.40;98.70
3356;DHT22;1691;52.486;13.374;2023-04-15T07:35:24;12.30;98.70
3356;DHT22;1691;52.486;13.374;2023-04-15T07:37:52;12.20;98.70
3356;DHT22;1691;52.486;13.374;2023-04-15T07:40:19;12.20;98.70
3356;DHT22;1691;52.486;13.374;2023-04-15T07:42:46;12.20;98.70
3356;DHT22;1691;52.486;13.374;2023-04-15T07:45:15;12.10;98.70
3356;DHT22;1691;52.486;13.374;2023-04-15T07:47:42;12.10;98.70
3356;DHT22;1691;52.486;13.374;2023-04-15T07:50:09;12.00;98.70
3356;DHT22;1691;52.486;13.374;2023-04-15T07:52:39;11.90;98.70
3356;DHT22;1691;52.486;13.374;2023-04-15T07:55:08;11.80;98.70
3356;DHT22;1691;52.486;13.374;2023-04-15T07:57:35;11.70;98.70
3356;DHT22;1691;52.486;13.374;2023-04-15T08:00:04;11.60;98.70
3356;DHT22;1691;52.486;13.374;2023-04-15T08:02:33;11.60;98.70
3356;DHT22;1691;52.486;13.374;2023-04-15T08:05:04;11.60;98.70
3356;DHT22;1691;52.486;13.374;2023-04-15T08:07:31;11.60;98.70
3356;DHT22;1691;52.486;13.374;2023-04-15T08:09:58;11.60;98.70
3356;DHT22;1691;52.486;13.374;2023-04-15T08:12:25;11.50;98.70
3356;DHT22;1691;52.486;13.374;2023-04-15T08:14:52;11.50;98.70
3356;DHT22;1691;52.486;13.374;2023-04-15T08:17:20;11.50;98.70
3356;DHT22;1691;52.486;13.374;2023-04-15T08:19:47;11.50;98.70
3356;DHT22;1691;52.486;13.374;2023-04-15T08:22:14;11.50;98.70
3356;DHT22;1691;52.486;13.374;2023-04-15T08:24:44;11.50;98.70
3356;DHT22;1691;52.486;13.374;2023-04-15T08:27:12;11.50;98.70
3356;DHT22;1691;52.486;13.374;2023-04-15T08:29:39;11.50;98.70
3356;DHT22;1691;52.486;13.374;2023-04-15T08:32:06;11.40;98.70
3356;DHT22;1691;52.486;13.374;2023-04-15T08:34:33;11.40;98.70
3356;DHT22;1691;52.486;13.374;2023-04-15T08:37:00;11.40;98.70
3356;DHT22;1691;52.486;13.374;2023-04-15T08:39:27;11.40;98.70
3356;DHT22;1691;52.486;13.374;2023-04-15T08:42:01;11.30;98.70
3356;DHT22;1691;52.486;13.374;2023-04-15T08:44:31;11.20;98.70
3356;DHT22;1691;52.486;13.374;2023-04-15T08:47:00;11.20;98.70
3356;DHT22;1691;52.486;13.374;2023-04-15T08:49:32;11.10;98.70
3356;DHT22;1691;52.486;13.374;2023-04-15T08:52:00;11.10;98.70
3356;DHT22;1691;52.486;13.374;2023-04-15T08:54:28;11.10;98.70
3356;DHT22;1691;52.486;13.374;2023-04-15T08:56:57;11.00;98.70
3356;DHT22;1691;52.486;13.374;2023-04-15T08:59:24;11.00;98.70
3356;DHT22;1691;52.486;13.374;2023-04-15T09:01:51;11.00;98.70
3356;DHT22;1691;52.486;13.374;2023-04-15T09:04:19;11.00;98.70
3356;DHT22;1691;52.486;13.374;2023-04-15T09:06:46;11.00;98.70
3356;DHT22;1691;52.486;13.374;2023-04-15T09:09:13;11.10;98.70
3356;DHT22;1691;52.486;13.374;2023-04-15T09:11:41;11.10;98.70
3356;DHT22;1691;52.486;13.374;2023-04-15T09:14:08;11.10;98.70
3356;DHT22;1691;52.486;13.374;2023-04-15T09:16:58;11.10;98.70
3356;DHT22;1691;52.486;13.374;2023-04-15T09:19:26;11.10;98.70
3356;DHT22;1691;52.486;13.374;2023-04-15T09:21:55;11.20;98.70
3356;DHT22;1691;52.486;13.374;2023-04-15T09:24:27;11.10;98.70
3356;DHT22;1691;52.486;13.374;2023-04-15T09:27:04;11.10;98.70
3356;DHT22;1691;52.486;13.374;2023-04-15T09:29:32;11.10;98.70
3356;DHT22;1691;52.486;13.374;2023-04-15T09:32:12;11.10;98.70
3356;DHT22;1691;52.486;13.374;2023-04-15T09:34:40;11.20;98.70
3356;DHT22;1691;52.486;13.374;2023-04-15T09:37:07;11.20;98.70
3356;DHT22;1691;52.486;13.374;2023-04-15T09:39:49;11.20;98.70
3356;DHT22;1691;52.486;13.374;2023-04-15T09:42:17;11.20;98.70
3356;DHT22;1691;52.486;13.374;2023-04-15T09:44:51;11.10;98.70
3356;DHT22;1691;52.486;13.374;2023-04-15T09:47:29;11.10;98.70
3356;DHT22;1691;52.486;13.374;2023-04-15T09:49:58;11.10;98.70
3356;DHT22;1691;52.486;13.374;2023-04-15T09:52:26;11.10;98.70
3356;DHT22;1691;52.486;13.374;2023-04-15T09:54:58;11.00;98.70
3356;DHT22;1691;52.486;13.374;2023-04-15T09:57:33;11.00;98.70
3356;DHT22;1691;52.486;13.374;2023-04-15T10:00:06;10.90;98.70
3356;DHT22;1691;52.486;13.374;2023-04-15T10:02:34;10.90;98.70
3356;DHT22;1691;52.486;13.374;2023-04-15T10:05:02;10.90;98.70
3356;DHT22;1691;52.486;13.374;2023-04-15T10:07:30;10.80;98.70
3356;DHT22;1691;52.486;13.374;2023-04-15T10:09:59;10.80;98.70
3356;DHT22;1691;52.486;13.374;2023-04-15T10:12:28;10.90;98.70
3356;DHT22;1691;52.486;13.374;2023-04-15T10:14:59;10.90;98.70
3356;DHT22;1691;52.486;13.374;2023-04-15T10:17:32;10.90;98.70
3356;DHT22;1691;52.486;13.374;2023-04-15T10:20:02;10.90;98.70
3356;DHT22;1691;52.486;13.374;2023-04-15T10:22:31;10.90;98.70
3356;DHT22;1691;52.486;13.374;2023-04-15T10:25:01;10.80;98.70
3356;DHT22;1691;52.486;13.374;2023-04-15T10:27:30;10.80;98.70
3356;DHT22;1691;52.486;13.374;2023-04-15T10:29:59;10.80;98.70
3356;DHT22;1691;52.486;13.374;2023-04-15T10:32:28;10.80;98.70
3356;DHT22;1691;52.486;13.374;2023-04-15T10:34:57;10.80;98.70
3356;DHT22;1691;52.486;13.374;2023-04-15T10:37:35;10.80;98.70
3356;DHT22;1691;52.486;13.374;2023-04-15T10:43:00;10.90;98.70
3356;DHT22;1691;52.486;13.374;2023-04-15T10:45:32;10.90;98.70
3356;DHT22;1691;52.486;13.374;2023-04-15T10:48:04;10.90;98.70
3356;DHT22;1691;52.486;13.374;2023-04-15T10:50:33;10.90;98.70
3356;DHT22;1691;52.486;13.374;2023-04-15T10:53:02;10.90;98.70
3356;DHT22;1691;52.486;13.374;2023-04-15T10:55:34;10.90;98.70
3356;DHT22;1691;52.486;13.374;2023-04-15T10:58:01;11.00;98.70
3356;DHT22;1691;52.486;13.374;2023-04-15T11:00:30;11.00;98.70
3356;DHT22;1691;52.486;13.374;2023-04-15T11:03:04;11.00;98.70
3356;DHT22;1691;52.486;13.374;2023-04-15T11:08:15;10.90;98.70
3356;DHT22;1691;52.486;13.374;2023-04-15T11:13:16;10.90;98.70
3356;DHT22;1691;52.486;13.374;2023-04-15T11:15:48;10.90;98.70
3356;DHT22;1691;52.486;13.374;2023-04-15T11:18:20;10.80;98.70
3356;DHT22;1691;52.486;13.374;2023-04-15T11:20:50;10.80;98.70
3356;DHT22;1691;52.486;13.374;2023-04-15T11:23:33;10.80;98.70
3356;DHT22;1691;52.486;13.374;2023-04-15T11:26:06;10.80;98.70
3356;DHT22;1691;52.486;13.374;2023-04-15T11:28:44;10.80;98.70
3356;DHT22;1691;52.486;13.374;2023-04-15T11:31:16;10.70;98.70
3356;DHT22;1691;52.486;13.374;2023-04-15T11:33:59;10.80;98.70
3356;DHT22;1691;52.486;13.374;2023-04-15T11:36:29;10.80;98.70
3356;DHT22;1691;52.486;13.374;2023-04-15T11:38:58;10.80;98.70
3356;DHT22;1691;52.486;13.374;2023-04-15T11:41:26;10.80;98.70
3356;DHT22;1691;52.486;13.374;2023-04-15T11:43:53;10.80;98.70
3356;DHT22;1691;52.486;13.374;2023-04-15T11:46:20;10.80;98.70
3356;DHT22;1691;52.486;13.374;2023-04-15T11:48:48;10.80;98.70
3356;DHT22;1691;52.486;13.374;2023-04-15T11:51:15;10.80;98.70
3356;DHT22;1691;52.486;13.374;2023-04-15T11:53:47;10.80;98.70
3356;DHT22;1691;52.486;13.374;2023-04-15T11:56:22;10.80;98.70
3356;DHT22;1691;52.486;13.374;2023-04-15T11:58:55;10.80;98.70
3356;DHT22;1691;52.486;13.374;2023-04-15T12:01:37;10.70;98.70
3356;DHT22;1691;52.486;13.374;2023-04-15T12:04:16;10.70;98.70
3356;DHT22;1691;52.486;13.374;2023-04-15T12:06:50;10.80;98.70
3356;DHT22;1691;52.486;13.374;2023-04-15T12:09:17;10.80;98.70
3356;DHT22;1691;52.486;13.374;2023-04-15T12:11:51;10.80;98.70
3356;DHT22;1691;52.486;13.374;2023-04-15T12:16:57;10.80;98.70
3356;DHT22;1691;52.486;13.374;2023-04-15T12:19:26;10.80;98.70
3356;DHT22;1691;52.486;13.374;2023-04-15T12:22:03;10.80;98.70
3356;DHT22;1691;52.486;13.374;2023-04-15T12:24:33;10.90;98.70
3356;DHT22;1691;52.486;13.374;2023-04-15T12:27:12;10.90;98.70
3356;DHT22;1691;52.486;13.374;2023-04-15T12:29:41;10.90;98.70
3356;DHT22;1691;52.486;13.374;2023-04-15T12:32:15;11.00;98.70
3356;DHT22;1691;52.486;13.374;2023-04-15T12:34:50;11.00;98.70
3356;DHT22;1691;52.486;13.374;2023-04-15T12:37:18;11.10;98.70
3356;DHT22;1691;52.486;13.374;2023-04-15T12:39:47;11.10;98.70
3356;DHT22;1691;52.486;13.374;2023-04-15T12:42:15;11.20;98.70
3356;DHT22;1691;52.486;13.374;2023-04-15T12:44:43;11.20;98.70
3356;DHT22;1691;52.486;13.374;2023-04-15T12:47:10;11.20;98.70
3356;DHT22;1691;52.486;13.374;2023-04-15T12:49:38;11.20;98.70
3356;DHT22;1691;52.486;13.374;2023-04-15T12:52:05;11.20;98.70
3356;DHT22;1691;52.486;13.374;2023-04-15T12:54:32;11.30;98.70
3356;DHT22;1691;52.486;13.374;2023-04-15T12:57:01;11.30;98.70
3356;DHT22;1691;52.486;13.374;2023-04-15T12:59:32;11.40;98.70
3356;DHT22;1691;52.486;13.374;2023-04-15T13:02:00;11.40;98.70
3356;DHT22;1691;52.486;13.374;2023-04-15T13:04:28;11.30;98.70
3356;DHT22;1691;52.486;13.374;2023-04-15T13:06:57;11.40;98.70
3356;DHT22;1691;52.486;13.374;2023-04-15T13:09:24;11.40;98.70
3356;DHT22;1691;52.486;13.374;2023-04-15T13:11:51;11.40;98.70
3356;DHT22;1691;52.486;13.374;2023-04-15T13:14:18;11.40;98.70
3356;DHT22;1691;52.486;13.374;2023-04-15T13:16:45;11.40;98.70
3356;DHT22;1691;52.486;13.374;2023-04-15T13:19:12;11.40;98.70
3356;DHT22;1691;52.486;13.374;2023-04-15T13:21:40;11.40;98.70
3356;DHT22;1691;52.486;13.374;2023-04-15T13:24:07;11.40;98.70
3356;DHT22;1691;52.486;13.374;2023-04-15T13:26:34;11.40;98.70
3356;DHT22;1691;52.486;13.374;2023-04-15T13:29:02;11.40;98.70
3356;DHT22;1691;52.486;13.374;2023-04-15T13:31:28;11.40;98.70
3356;DHT22;1691;52.486;13.374;2023-04-15T13:33:56;11.30;98.70
3356;DHT22;1691;52.486;13.374;2023-04-15T13:36:23;11.30;98.70
3356;DHT22;1691;52.486;13.374;2023-04-15T13:38:50;11.30;98.70
3356;DHT22;1691;52.486;13.374;2023-04-15T13:41:17;11.30;98.70
3356;DHT22;1691;52.486;13.374;2023-04-15T13:43:45;11.30;98.70
3356;DHT22;1691;52.486;13.374;2023-04-15T13:46:12;11.40;98.70
3356;DHT22;1691;52.486;13.374;2023-04-15T13:48:40;11.40;98.70
3356;DHT22;1691;52.486;13.374;2023-04-15T13:51:07;11.50;98.70
3356;DHT22;1691;52.486;13.374;2023-04-15T13:53:34;11.40;98.70
3356;DHT22;1691;52.486;13.374;2023-04-15T13:56:08;11.40;98.70
3356;DHT22;1691;52.486;13.374;2023-04-15T13:58:36;11.40;98.70
3356;DHT22;1691;52.486;13.374;2023-04-15T14:01:04;11.40;98.70
3356;DHT22;1691;52.486;13.374;2023-04-15T14:03:36;11.40;98.70
3356;DHT22;1691;52.486;13.374;2023-04-15T14:06:04;11.40;98.70
3356;DHT22;1691;52.486;13.374;2023-04-15T14:08:32;11.30;98.70
3356;DHT22;1691;52.486;13.374;2023-04-15T14:10:59;11.20;98.70
3356;DHT22;1691;52.486;13.374;2023-04-15T14:13:26;11.20;98.70
3356;DHT22;1691;52.486;13.374;2023-04-15T14:15:53;11.20;98.70
3356;DHT22;1691;52.486;13.374;2023-04-15T14:18:20;11.20;98.70
3356;DHT22;1691;52.486;13.374;2023-04-15T14:20:47;11.20;98.70
3356;DHT22;1691;52.486;13.374;2023-04-15T14:23:14;11.20;98.70
3356;DHT22;1691;52.486;13.374;2023-04-15T14:25:41;11.20;98.70
3356;DHT22;1691;52.486;13.374;2023-04-15T14:28:10;11.20;98.70
3356;DHT22;1691;52.486;13.374;2023-04-15T14:30:37;11.20;98.70
3356;DHT22;1691;52.486;13.374;2023-04-15T14:33:04;11.20;98.70
3356;DHT22;1691;52.486;13.374;2023-04-15T14:35:31;11.20;98.70
3356;DHT22;1691;52.486;13.374;2023-04-15T14:37:58;11.20;98.70
3356;DHT22;1691;52.486;13.374;2023-04-15T14:40:25;11.20;98.70
3356;DHT22;1691;52.486;13.374;2023-04-15T14:42:52;11.30;98.70
3356;DHT22;1691;52.486;13.374;2023-04-15T14:45:19;11.30;98.70
3356;DHT22;1691;52.486;13.374;2023-04-15T14:47:46;11.20;98.70
3356;DHT22;1691;52.486;13.374;2023-04-15T14:50:14;11.20;98.70
3356;DHT22;1691;52.486;13.374;2023-04-15T14:52:41;11.20;98.70
3356;DHT22;1691;52.486;13.374;2023-04-15T14:55:09;11.10;98.70
3356;DHT22;1691;52.486;13.374;2023-04-15T14:57:38;11.10;98.70
3356;DHT22;1691;52.486;13.374;2023-04-15T15:00:08;11.10;98.70
3356;DHT22;1691;52.486;13.374;2023-04-15T15:02:40;11.10;98.70
3356;DHT22;1691;52.486;13.374;2023-04-15T15:05:09;11.10;98.70
3356;DHT22;1691;52.486;13.374;2023-04-15T15:07:38;11.10;98.70
3356;DHT22;1691;52.486;13.374;2023-04-15T15:10:06;11.10;98.70
3356;DHT22;1691;52.486;13.374;2023-04-15T15:12:34;11.20;98.70
3356;DHT22;1691;52.486;13.374;2023-04-15T15:15:02;11.10;98.70
3356;DHT22;1691;52.486;13.374;2023-04-15T15:17:41;11.10;98.70
3356;DHT22;1691;52.486;13.374;2023-04-15T15:20:09;11.10;98.70
3356;DHT22;1691;52.486;13.374;2023-04-15T15:22:36;11.10;98.70
3356;DHT22;1691;52.486;13.374;2023-04-15T15:25:03;11.10;98.70
3356;DHT22;1691;52.486;13.374;2023-04-15T15:27:30;11.10;98.70
3356;DHT22;1691;52.486;13.374;2023-04-15T15:29:58;11.10;98.70
3356;DHT22;1691;52.486;13.374;2023-04-15T15:32:25;11.10;98.70
3356;DHT22;1691;52.486;13.374;2023-04-15T15:34:52;11.10;98.70
3356;DHT22;1691;52.486;13.374;2023-04-15T15:37:19;11.10;98.70
3356;DHT22;1691;52.486;13.374;2023-04-15T15:39:46;11.10;98.70
3356;DHT22;1691;52.486;13.374;2023-04-15T15:42:13;11.10;98.70
3356;DHT22;1691;52.486;13.374;2023-04-15T15:44:40;11.10;98.70
3356;DHT22;1691;52.486;13.374;2023-04-15T15:47:07;11.10;98.70
3356;DHT22;1691;52.486;13.374;2023-04-15T15:49:34;11.10;98.70
3356;DHT22;1691;52.486;13.374;2023-04-15T15:52:01;11.10;98.70
3356;DHT22;1691;52.486;13.374;2023-04-15T15:54:28;11.10;98.70
3356;DHT22;1691;52.486;13.374;2023-04-15T15:56:55;11.10;98.70
3356;DHT22;1691;52.486;13.374;2023-04-15T15:59:23;11.10;98.70
3356;DHT22;1691;52.486;13.374;2023-04-15T16:01:51;11.10;98.70
3356;DHT22;1691;52.486;13.374;2023-04-15T16:04:18;11.10;98.70
3356;DHT22;1691;52.486;13.374;2023-04-15T16:06:46;11.10;98.70
3356;DHT22;1691;52.486;13.374;2023-04-15T16:09:13;11.10;98.70
3356;DHT22;1691;52.486;13.374;2023-04-15T16:11:40;11.10;98.70